Time;durP1;ratioP1;P1;durP2;ratioP2;P2;SDS_P1;SDS_P2;PMS_P1;PMS_P2;Temp;Humidity;BMP_temperature;BMP_pressure;BME280_temperature;BME280_humidity;BME280_pressure;Samples;Min_cycle;Max_cycle;Signal;HPM_P1;HPM_P2
2024/04/24 00:01:40;;;;;;;9.88;8.88;;;;;;;31.28;86.11;100682.38;5388328;26;64825;-29
2024/04/24 00:04:11;;;;;;;14.10;10.60;;;;;;;31.31;86.39;100691.94;5365418;26;68737;-29
2024/04/24 00:06:42;;;;;;;20.88;11.93;;;;;;;31.34;87.09;100691.50;5383665;26;65073;-29
2024/04/24 00:09:13;;;;;;;12.95;10.73;;;;;;;31.21;86.97;100670.00;5385046;26;69093;-28
2024/04/24 00:11:44;;;;;;;18.93;10.33;;;;;;;31.34;86.34;100678.78;5384274;26;64048;-29
2024/04/24 00:14:16;;;;;;;13.68;9.40;;;;;;;31.43;88.25;100690.19;5383613;26;68309;-29
2024/04/24 00:16:48;;;;;;;16.58;9.90;;;;;;;31.46;87.31;100695.13;5378747;26;64874;-28
2024/04/24 00:19:19;;;;;;;11.20;10.10;;;;;;;31.47;88.33;100679.69;5393840;26;68715;-29
2024/04/24 00:21:50;;;;;;;10.57;9.30;;;;;;;31.52;89.14;100687.97;5379506;26;64933;-31
2024/04/24 00:24:21;;;;;;;14.35;9.27;;;;;;;31.56;86.46;100695.41;5383265;26;70711;-28
2024/04/24 00:26:52;;;;;;;10.57;8.27;;;;;;;31.60;88.05;100690.34;5385303;26;65114;-29
2024/04/24 00:29:24;;;;;;;10.80;9.40;;;;;;;31.61;87.29;100700.97;5383731;26;68855;-28
2024/04/24 00:31:55;;;;;;;9.93;8.93;;;;;;;31.65;88.01;100708.63;5412760;26;64448;-30
2024/04/24 00:34:26;;;;;;;14.13;7.97;;;;;;;31.68;89.83;100697.31;5363334;26;68891;-29
2024/04/24 00:36:57;;;;;;;12.35;8.15;;;;;;;31.68;88.19;100691.91;5382735;26;66109;-30
2024/04/24 00:39:28;;;;;;;11.07;7.10;;;;;;;31.72;88.98;100707.50;5385799;26;69331;-28
2024/04/24 00:41:59;;;;;;;20.10;7.77;;;;;;;31.73;89.75;100708.31;5372867;26;66382;-28
2024/04/24 00:44:30;;;;;;;7.63;6.87;;;;;;;31.78;88.63;100708.44;5369837;26;67719;-29
2024/04/24 00:47:02;;;;;;;9.03;6.93;;;;;;;31.72;87.71;100703.97;5376895;26;65044;-29
2024/04/24 00:49:33;;;;;;;7.95;7.15;;;;;;;31.86;88.66;100727.13;5374725;26;68130;-29
2024/04/24 00:52:04;;;;;;;12.43;7.00;;;;;;;31.88;88.41;100727.72;5372724;26;64765;-29
2024/04/24 00:54:36;;;;;;;7.43;6.70;;;;;;;31.92;89.30;100725.41;5377124;26;68209;-29
2024/04/24 00:57:07;;;;;;;8.45;7.07;;;;;;;31.95;87.88;100731.19;5376457;26;64663;-29
2024/04/24 00:59:38;;;;;;;8.95;6.85;;;;;;;32.01;87.07;100729.41;5376738;26;67911;-29
2024/04/24 01:02:10;;;;;;;6.03;5.50;;;;;;;32.09;86.46;100733.69;5382258;26;63328;-30
2024/04/24 01:04:41;;;;;;;7.35;6.32;;;;;;;32.11;86.11;100734.31;5381077;26;68405;-29
2024/04/24 01:07:12;;;;;;;6.77;6.27;;;;;;;32.15;85.80;100740.91;5380327;26;65518;-30
2024/04/24 01:09:43;;;;;;;7.30;6.60;;;;;;;32.19;85.89;100742.09;5379899;26;68418;-29
2024/04/24 01:12:14;;;;;;;7.65;6.78;;;;;;;32.21;85.55;100748.13;5380389;26;64657;-29
2024/04/24 01:14:45;;;;;;;7.20;6.23;;;;;;;32.23;84.33;100754.13;5382165;26;68306;-35
2024/04/24 01:17:18;;;;;;;7.80;5.90;;;;;;;32.25;84.45;100752.03;5384432;26;65167;-30
2024/04/24 01:19:51;;;;;;;6.80;6.20;;;;;;;32.26;84.81;100751.81;5388584;26;68630;-28
2024/04/24 01:22:36;;;;;;;9.88;6.03;;;;;;;32.31;83.49;100751.09;5383148;26;64106;-30
2024/04/24 01:25:24;;;;;;;7.65;5.30;;;;;;;32.34;85.32;100761.47;5377210;26;68375;-28
2024/04/24 01:27:55;;;;;;;9.05;5.85;;;;;;;32.35;84.39;100757.72;5378912;26;65749;-30
2024/04/24 01:30:26;;;;;;;;;;;;;;;32.32;85.00;100763.63;5379307;26;67754;-29
2024/04/24 01:32:57;;;;;;;5.40;4.90;;;;;;;32.42;83.09;100763.84;5381500;26;65058;-30
2024/04/24 01:35:29;;;;;;;10.45;5.35;;;;;;;32.38;83.97;100746.41;5383091;26;68037;-30
2024/04/24 01:38:00;;;;;;;5.35;5.05;;;;;;;32.47;83.46;100761.31;5379753;26;63843;-29
2024/04/24 01:40:32;;;;;;;5.80;4.97;;;;;;;32.42;83.36;100755.72;5381851;26;68631;-30
2024/04/24 01:43:03;;;;;;;5.50;5.13;;;;;;;32.53;83.63;100761.44;5375991;26;65030;-29
2024/04/24 01:45:34;;;;;;;5.68;5.18;;;;;;;32.56;82.47;100763.69;5379913;26;68344;-29
2024/04/24 01:48:06;;;;;;;6.45;5.15;;;;;;;32.59;83.47;100761.31;5383034;26;65060;-29
2024/04/24 01:50:37;;;;;;;;;;;;;;;32.55;85.45;100756.59;5383491;26;68587;-29
2024/04/24 01:53:08;;;;;;;5.22;4.72;;;;;;;32.65;81.37;100762.25;5379226;26;64428;-30
2024/04/24 01:55:39;;;;;;;5.43;5.03;;;;;;;32.69;81.40;100768.88;5382454;26;68673;-29
2024/04/24 01:58:11;;;;;;;5.03;4.72;;;;;;;32.73;81.53;100772.78;5375384;26;65056;-30
2024/04/24 02:00:42;;;;;;;5.63;5.23;;;;;;;32.75;81.39;100767.94;5375021;26;70198;-30
2024/04/24 02:03:13;;;;;;;5.43;5.03;;;;;;;32.79;81.63;100771.00;5381542;26;63699;-33
2024/04/24 02:05:44;;;;;;;6.55;4.78;;;;;;;32.82;81.71;100768.66;5377566;26;68303;-30
2024/04/24 02:08:16;;;;;;;5.20;4.80;;;;;;;32.85;81.67;100773.63;5380649;26;64457;-29
2024/04/24 02:10:47;;;;;;;5.35;4.80;;;;;;;32.89;80.99;100768.53;5382892;26;69350;-30
2024/04/24 02:13:19;;;;;;;6.05;5.53;;;;;;;32.78;81.61;100744.91;5383084;26;65063;-30
2024/04/24 02:15:50;;;;;;;5.32;4.88;;;;;;;32.97;80.95;100759.19;5385626;26;68665;-31
2024/04/24 02:18:22;;;;;;;8.90;5.03;;;;;;;33.01;80.73;100760.41;5385483;26;64583;-29
2024/04/24 02:20:53;;;;;;;6.13;5.35;;;;;;;33.04;80.60;100759.91;5382206;26;67927;-30
2024/04/24 02:23:31;;;;;;;5.87;5.33;;;;;;;33.07;80.73;100754.84;5383641;26;64959;-30
2024/04/24 02:26:08;;;;;;;5.07;4.68;;;;;;;33.11;81.81;100757.91;5386244;26;67850;-30
2024/04/24 02:28:40;;;;;;;5.68;5.10;;;;;;;33.18;81.27;100755.06;5386082;26;65309;-29
2024/04/24 02:31:11;;;;;;;;;;;;;;;33.12;82.30;100756.84;5387181;26;67934;-31
2024/04/24 02:33:42;;;;;;;5.35;4.85;;;;;;;33.24;80.55;100752.22;5383466;26;65409;-29
2024/04/24 02:36:14;;;;;;;5.57;5.05;;;;;;;33.28;80.04;100750.66;5385764;26;69441;-31
2024/04/24 02:38:45;;;;;;;5.90;4.80;;;;;;;33.31;80.64;100744.75;5386859;26;64971;-31
2024/04/24 02:41:16;;;;;;;5.25;4.85;;;;;;;33.34;79.90;100738.81;5382296;26;67735;-31
2024/04/24 02:43:48;;;;;;;6.88;4.75;;;;;;;33.36;80.25;100742.13;5385738;26;64656;-31
2024/04/24 02:46:20;;;;;;;5.70;5.25;;;;;;;33.39;79.93;100740.84;5385939;26;69524;-29
2024/04/24 02:48:51;;;;;;;4.90;4.43;;;;;;;33.40;79.29;100738.94;5383534;26;65519;-30
2024/04/24 02:51:23;;;;;;;4.90;4.50;;;;;;;33.47;79.66;100740.44;5369491;26;68674;-29
2024/04/24 02:53:54;;;;;;;4.55;4.25;;;;;;;33.38;79.27;100718.25;5386192;26;64930;-30
2024/04/24 02:56:25;;;;;;;5.00;4.60;;;;;;;33.53;80.25;100735.97;5385736;26;67828;-29
2024/04/24 02:58:56;;;;;;;4.72;4.32;;;;;;;33.55;79.50;100729.22;5386563;26;65476;-30
2024/04/24 03:01:28;;;;;;;4.97;4.57;;;;;;;33.61;79.97;100726.59;5382746;26;68836;-30
2024/04/24 03:03:59;;;;;;;4.40;4.10;;;;;;;33.62;79.45;100723.63;5371250;26;65099;-29
2024/04/24 03:06:30;;;;;;;5.13;4.72;;;;;;;33.66;78.93;100719.38;5385606;26;68674;-29
2024/04/24 03:09:01;;;;;;;4.85;4.47;;;;;;;33.69;78.74;100718.88;5382833;26;64584;-29
2024/04/24 03:11:33;;;;;;;4.50;4.10;;;;;;;33.72;78.84;100723.00;5384327;26;67899;-29
2024/04/24 03:14:04;;;;;;;4.30;4.00;;;;;;;33.75;78.58;100720.63;5385865;26;64181;-29
2024/04/24 03:16:36;;;;;;;4.57;4.28;;;;;;;33.79;79.63;100708.19;5382736;26;68915;-29
2024/04/24 03:19:07;;;;;;;4.55;4.25;;;;;;;33.84;79.39;100728.38;5383188;26;63546;-29
2024/04/24 03:21:39;;;;;;;4.68;4.28;;;;;;;33.87;79.44;100725.19;5385309;26;68246;-29
2024/04/24 03:24:10;;;;;;;4.68;4.28;;;;;;;33.90;78.44;100719.25;5384431;26;65641;-29
2024/04/24 03:26:42;;;;;;;4.20;3.80;;;;;;;33.92;79.36;100723.38;5386561;26;69117;-29
2024/04/24 03:29:13;;;;;;;4.45;4.00;;;;;;;33.97;78.85;100717.22;5383058;26;64808;-31
2024/04/24 03:31:48;;;;;;;4.22;3.83;;;;;;;33.99;78.41;100717.75;5385097;26;68727;-30
2024/04/24 03:34:20;;;;;;;5.70;3.92;;;;;;;34.01;78.81;100723.78;5385689;26;65489;-30
2024/04/24 03:36:51;;;;;;;3.85;3.55;;;;;;;34.06;78.48;100720.38;5382982;26;67779;-31
2024/04/24 03:39:23;;;;;;;3.80;3.50;;;;;;;34.09;78.84;100728.03;5386501;26;64822;-32
2024/04/24 03:41:54;;;;;;;4.15;3.83;;;;;;;34.12;78.72;100717.47;5374198;26;68764;-28
2024/04/24 03:44:25;;;;;;;4.95;3.33;;;;;;;34.16;78.74;100718.66;5382174;26;65177;-30
2024/04/24 03:46:57;;;;;;;4.07;3.80;;;;;;;34.14;78.71;100709.91;5359550;26;68791;-29
2024/04/24 03:49:28;;;;;;;5.13;3.70;;;;;;;34.17;77.92;100712.13;5386150;26;63831;-33
2024/04/24 03:52:00;;;;;;;3.65;3.40;;;;;;;34.24;78.58;100720.97;5382224;26;68725;-29
2024/04/24 03:54:31;;;;;;;3.53;3.33;;;;;;;34.28;78.18;100715.03;5417781;26;65204;-30
2024/04/24 03:57:02;;;;;;;4.10;3.80;;;;;;;34.30;77.99;100721.88;5385546;26;67894;-29
2024/04/24 03:59:33;;;;;;;3.53;3.25;;;;;;;34.33;78.48;100717.84;5383681;26;65269;-29
2024/04/24 04:02:05;;;;;;;3.38;3.13;;;;;;;34.37;78.47;100713.53;5381261;26;67853;-29
2024/04/24 04:04:36;;;;;;;3.75;3.45;;;;;;;34.38;78.22;100715.16;5411602;26;64512;-29
2024/04/24 04:07:07;;;;;;;3.63;3.42;;;;;;;34.43;78.06;100704.38;5373496;26;68633;-29
2024/04/24 04:09:39;;;;;;;3.38;3.08;;;;;;;34.44;77.95;100708.75;5384578;26;65106;-30
2024/04/24 04:12:09;;;;;;;3.47;3.27;;;;;;;34.48;78.08;100710.72;5382721;26;67852;-29
2024/04/24 04:14:42;;;;;;;4.10;3.22;;;;;;;34.54;77.97;100713.53;5384599;26;64008;-29
2024/04/24 04:17:13;;;;;;;6.57;3.85;;;;;;;34.54;77.77;100702.63;5385541;26;67962;-30
2024/04/24 04:19:45;;;;;;;3.80;3.38;;;;;;;34.56;78.24;100690.44;5380735;26;65346;-29
2024/04/24 04:22:16;;;;;;;4.03;3.70;;;;;;;34.60;78.03;100696.19;5385675;26;68714;-30
2024/04/24 04:24:47;;;;;;;3.65;3.35;;;;;;;34.64;77.40;100681.03;5384828;26;65957;-30
2024/04/24 04:27:19;;;;;;;3.65;3.35;;;;;;;34.67;77.89;100689.50;5393432;26;68669;-33
2024/04/24 04:29:50;;;;;;;3.80;3.15;;;;;;;34.67;77.77;100689.50;5384419;26;64933;-29
2024/04/24 04:32:22;;;;;;;3.40;3.15;;;;;;;34.67;78.13;100669.63;5382994;26;69174;-29
2024/04/24 04:34:53;;;;;;;;;;;;;;;34.66;78.03;100681.59;5383576;26;65184;-30
2024/04/24 04:37:24;;;;;;;2.90;2.70;;;;;;;34.77;77.90;100679.81;5385554;26;67935;-31
2024/04/24 04:39:55;;;;;;;3.45;3.25;;;;;;;34.82;77.94;100693.50;5385249;26;63696;-29
2024/04/24 04:42:27;;;;;;;3.35;3.15;;;;;;;34.84;77.84;100683.19;5381633;26;69258;-29
2024/04/24 04:44:58;;;;;;;3.30;3.10;;;;;;;34.86;77.81;100673.69;5383363;26;64475;-30
2024/04/24 04:47:29;;;;;;;3.30;3.10;;;;;;;34.88;77.54;100676.16;5382648;26;68616;-31
2024/04/24 04:50:00;;;;;;;;;;;;;;;34.84;77.84;100677.75;5384223;26;65096;-30
2024/04/24 04:52:32;;;;;;;3.05;2.83;;;;;;;34.96;77.13;100672.16;5376521;26;68468;-30
2024/04/24 04:55:03;;;;;;;3.90;3.55;;;;;;;34.98;77.53;100664.56;5380667;26;64000;-30
2024/04/24 04:57:35;;;;;;;3.25;3.05;;;;;;;35.00;77.40;100662.41;5383623;26;68636;-30
2024/04/24 05:00:07;;;;;;;3.67;3.38;;;;;;;35.02;77.49;100657.53;5389145;26;65238;-30
2024/04/24 05:02:38;;;;;;;3.13;2.92;;;;;;;35.04;77.33;100658.91;5385265;26;69069;-29
2024/04/24 05:05:10;;;;;;;3.13;2.83;;;;;;;35.07;77.45;100650.25;5385276;26;64872;-30
2024/04/24 05:07:42;;;;;;;3.20;3.00;;;;;;;35.01;77.57;100637.63;5385406;26;68115;-31
2024/04/24 05:10:13;;;;;;;3.38;3.08;;;;;;;35.14;77.46;100642.72;5382909;26;63927;-30
2024/04/24 05:12:45;;;;;;;4.13;2.95;;;;;;;35.17;77.40;100629.66;5384898;26;67602;-30
2024/04/24 05:15:16;;;;;;;3.90;3.50;;;;;;;35.17;77.96;100626.94;5384623;26;65597;-29
2024/04/24 05:17:47;;;;;;;9.10;3.92;;;;;;;35.21;77.28;100626.16;5383490;26;68243;-33
2024/04/24 05:20:19;;;;;;;;;;;;;;;35.19;77.43;100622.03;5385760;26;65008;-33
2024/04/24 05:22:58;;;;;;;3.70;3.40;;;;;;;35.27;77.05;100624.31;5382159;26;68681;-32
2024/04/24 05:25:33;;;;;;;5.15;3.45;;;;;;;35.31;77.44;100614.53;5385259;26;64965;-31
2024/04/24 05:30:58;;;;;;;3.35;3.05;;;;;;;35.33;77.18;100602.31;5383300;26;64204;-29
2024/04/24 05:33:30;;;;;;;3.40;3.10;;;;;;;35.39;76.82;100596.91;5377637;26;68607;-31
2024/04/24 05:36:02;;;;;;;3.10;2.80;;;;;;;35.41;76.73;100601.03;5383104;26;64581;-31
2024/04/24 05:38:33;;;;;;;3.33;3.00;;;;;;;35.45;76.66;100591.22;5382541;26;68829;-31
2024/04/24 05:41:04;;;;;;;3.30;3.00;;;;;;;35.45;76.81;100591.22;5379308;26;63863;-31
2024/04/24 05:43:36;;;;;;;3.17;2.90;;;;;;;35.49;76.78;100572.44;5377248;26;69097;-31
2024/04/24 05:46:08;;;;;;;3.22;3.03;;;;;;;35.54;76.43;100577.94;5381049;26;65561;-29
2024/04/24 05:48:39;;;;;;;6.50;2.95;;;;;;;35.56;76.43;100579.34;5381756;26;67650;-30
2024/04/24 05:51:11;;;;;;;3.50;3.00;;;;;;;35.60;76.61;100559.72;5383227;26;64005;-30
2024/04/24 05:53:42;;;;;;;2.88;2.67;;;;;;;35.61;76.47;100554.03;5383392;26;68706;-30
2024/04/24 05:56:14;;;;;;;6.18;2.90;;;;;;;35.66;76.26;100562.25;5382183;26;65776;-32
2024/04/24 05:58:46;;;;;;;2.90;2.70;;;;;;;35.69;76.63;100550.81;5382765;26;68379;-30
2024/04/24 06:01:18;;;;;;;2.65;2.47;;;;;;;35.72;76.65;100539.38;5383897;26;64361;-30
2024/04/24 06:03:49;;;;;;;3.20;2.42;;;;;;;35.72;76.41;100528.47;5380057;26;69816;-29
2024/04/24 06:06:20;;;;;;;3.05;2.75;;;;;;;35.77;76.57;100525.78;5393212;26;65127;-30
2024/04/24 06:08:51;;;;;;;;;;;;;;;35.74;76.08;100530.91;5397392;26;68922;-31
2024/04/24 06:11:23;;;;;;;2.40;2.20;;;;;;;35.86;76.16;100517.06;5383448;26;65139;-31
2024/04/24 06:13:54;;;;;;;2.60;2.40;;;;;;;35.89;75.72;100517.38;5380927;26;68734;-30
2024/04/24 06:16:26;;;;;;;4.55;2.40;;;;;;;35.92;75.74;100505.94;5378751;26;65290;-31
2024/04/24 06:19:00;;;;;;;2.60;2.40;;;;;;;35.96;75.87;100501.59;5382489;26;67856;-31
2024/04/24 06:21:32;;;;;;;2.47;2.28;;;;;;;35.98;75.38;100496.69;5383692;26;65391;-31
2024/04/24 06:24:04;;;;;;;2.00;1.90;;;;;;;36.04;75.31;100500.25;5380841;26;68807;-30
2024/04/24 06:26:39;;;;;;;1.85;1.70;;;;;;;36.08;75.86;100495.97;5361918;26;64409;-30
2024/04/24 06:29:15;;;;;;;2.25;2.05;;;;;;;36.12;74.91;100477.97;5380023;26;68878;-29
2024/04/24 06:31:46;;;;;;;4.60;2.20;;;;;;;36.15;75.75;100465.69;5383661;26;63917;-30
2024/04/24 06:34:18;;;;;;;2.05;1.95;;;;;;;36.21;74.95;100465.44;5381583;26;68752;-32
2024/04/24 06:36:50;;;;;;;5.85;2.40;;;;;;;36.27;75.27;100462.72;5377324;26;66182;-31
2024/04/24 06:39:22;;;;;;;2.30;2.10;;;;;;;36.29;74.91;100453.16;5381700;26;69093;-30
2024/04/24 06:41:53;;;;;;;2.42;2.03;;;;;;;36.34;75.23;100447.72;5399822;26;64714;-30
2024/04/24 06:44:24;;;;;;;;;;;;;;;36.31;74.38;100445.53;5357257;26;68897;-29
2024/04/24 06:46:56;;;;;;;3.20;2.40;;;;;;;36.45;74.38;100438.47;5381192;26;64442;-30
2024/04/24 06:49:27;;;;;;;1.92;1.83;;;;;;;36.47;74.24;100436.31;5382699;26;67956;-30
2024/04/24 06:52:00;;;;;;;2.35;2.17;;;;;;;36.55;73.92;100431.41;5380259;26;64695;-30
2024/04/24 06:54:32;;;;;;;2.38;2.17;;;;;;;36.55;74.25;100425.97;5382354;26;67767;-30
2024/04/24 06:57:03;;;;;;;2.00;1.88;;;;;;;36.64;74.65;100429.81;5379680;26;65327;-29
2024/04/24 06:59:35;;;;;;;2.30;2.10;;;;;;;36.69;74.70;100421.59;5386204;26;68642;-31
2024/04/24 07:02:06;;;;;;;2.47;2.08;;;;;;;36.76;74.02;100419.44;5383328;26;65043;-30
2024/04/24 07:04:38;;;;;;;1.98;1.75;;;;;;;36.83;73.73;100416.44;5382501;26;69025;-31
2024/04/24 07:07:09;;;;;;;2.03;1.83;;;;;;;36.87;74.35;100412.88;5382646;26;65015;-29
2024/04/24 07:09:41;;;;;;;1.75;1.65;;;;;;;36.92;73.91;100414.81;5385269;26;68012;-30
2024/04/24 07:12:12;;;;;;;2.38;1.77;;;;;;;36.99;73.21;100412.59;5375610;26;64961;-30
2024/04/24 07:14:44;;;;;;;5.90;1.98;;;;;;;37.05;73.59;100413.47;5390048;26;68196;-29
2024/04/24 07:17:16;;;;;;;1.40;1.30;;;;;;;37.11;73.78;100401.41;5385416;26;64393;-30
2024/04/24 07:19:47;;;;;;;;;;;;;;;37.06;72.85;100393.25;5384672;26;68567;-29
2024/04/24 07:22:18;;;;;;;4.97;1.95;;;;;;;37.23;73.08;100393.78;5386492;26;64087;-32
2024/04/24 07:24:50;;;;;;;3.45;1.90;;;;;;;37.28;73.17;100387.47;5385772;26;68754;-30
2024/04/24 07:27:21;;;;;;;1.73;1.63;;;;;;;37.34;72.96;100384.44;5385533;26;65144;-30
2024/04/24 07:29:53;;;;;;;1.77;1.67;;;;;;;37.39;72.55;100382.78;5386377;26;68714;-29
2024/04/24 07:32:23;;;;;;;;;;;;;;;37.37;71.79;100382.25;5384393;26;64900;-30
2024/04/24 07:34:55;;;;;;;1.65;1.52;;;;;;;37.52;72.39;100385.78;5385610;26;68640;-30
2024/04/24 07:37:27;;;;;;;2.70;2.08;;;;;;;37.57;71.97;100382.22;5384744;26;64962;-31
2024/04/24 07:39:59;;;;;;;2.92;1.83;;;;;;;37.60;72.81;100381.69;5366423;26;68016;-31
2024/04/24 07:42:31;;;;;;;1.77;1.50;;;;;;;37.66;72.63;100385.22;5386170;26;65258;-30
2024/04/24 07:45:03;;;;;;;4.47;1.67;;;;;;;37.70;71.65;100381.66;5382849;26;68625;-30
2024/04/24 07:47:34;;;;;;;1.60;1.50;;;;;;;37.75;72.00;100373.44;5380911;26;64949;-30
2024/04/24 07:50:06;;;;;;;2.30;1.75;;;;;;;37.80;72.08;100369.81;5396819;26;68188;-30
2024/04/24 07:52:37;;;;;;;1.80;1.70;;;;;;;37.83;72.07;100369.25;5385297;26;63629;-32
2024/04/24 07:55:08;;;;;;;;;;;;;;;37.78;71.23;100367.38;5377585;26;68373;-32
2024/04/24 07:57:39;;;;;;;1.90;1.35;;;;;;;37.92;71.29;100364.03;5385808;26;64328;-29
2024/04/24 08:00:12;;;;;;;4.13;1.35;;;;;;;37.96;71.74;100367.88;5383388;26;68860;-30
2024/04/24 08:02:43;;;;;;;1.73;1.40;;;;;;;37.99;71.02;100359.09;5368123;26;65212;-32
2024/04/24 08:05:16;;;;;;;2.35;1.58;;;;;;;38.00;71.87;100347.03;5384639;26;68695;-30
2024/04/24 08:07:47;;;;;;;1.55;1.25;;;;;;;38.05;71.73;100352.50;5381587;26;63989;-30
2024/04/24 08:10:18;;;;;;;;;;;;;;;37.97;69.71;100348.44;5384829;26;68709;-33
2024/04/24 08:12:49;;;;;;;1.40;1.17;;;;;;;38.08;71.29;100343.72;5384961;26;65039;-30
2024/04/24 08:15:20;;;;;;;;;;;;;;;38.00;69.74;100347.03;5400855;26;67937;-29
2024/04/24 08:17:54;;;;;;;5.28;1.08;;;;;;;38.12;71.27;100344.78;5380035;26;65362;-29
2024/04/24 08:20:25;;;;;;;;;;;;;;;38.02;70.15;100338.56;5386682;26;68604;-31
2024/04/24 08:22:56;;;;;;;2.63;1.40;;;;;;;38.16;70.83;100342.31;5392840;26;64951;-32
2024/04/24 08:25:28;;;;;;;1.75;1.42;;;;;;;38.16;70.86;100334.09;5395807;26;67441;-32
2024/04/24 08:28:00;;;;;;;1.20;1.10;;;;;;;38.17;70.82;100336.56;5384681;26;64309;-32
2024/04/24 08:30:31;;;;;;;;;;;;;;;38.06;69.37;100332.25;5384669;26;68620;-30
2024/04/24 08:33:02;;;;;;;1.33;1.23;;;;;;;38.19;70.47;100334.31;5383906;26;65257;-33
2024/04/24 08:35:35;;;;;;;2.20;1.42;;;;;;;38.18;70.89;100329.97;5383097;26;68877;-31
2024/04/24 08:38:06;;;;;;;;;;;;;;;38.08;69.75;100330.03;5385583;26;64714;-29
2024/04/24 08:40:37;;;;;;;1.57;1.20;;;;;;;38.21;70.25;100326.66;5382615;26;67603;-31
2024/04/24 08:43:08;;;;;;;;;;;;;;;38.07;68.89;100336.59;5370400;26;65243;-30
2024/04/24 08:45:42;;;;;;;1.42;1.05;;;;;;;38.21;70.69;100337.59;5384850;26;67786;-31
2024/04/24 08:48:13;;;;;;;1.38;1.27;;;;;;;38.20;70.45;100330.50;5385364;26;65372;-30
2024/04/24 08:50:48;;;;;;;1.40;1.20;;;;;;;38.15;69.31;100319.59;5380396;26;69070;-31
2024/04/24 08:53:23;;;;;;;1.60;0.98;;;;;;;38.19;70.86;100323.38;5384242;26;65597;-33
2024/04/24 08:55:56;;;;;;;2.97;1.20;;;;;;;38.13;70.39;100319.03;5369005;26;69116;-30
2024/04/24 08:58:30;;;;;;;1.83;1.40;;;;;;;38.02;69.99;100290.09;5402580;26;64966;-31
2024/04/24 09:01:08;;;;;;;1.40;1.20;;;;;;;37.99;70.45;100288.72;5385223;26;68133;-31
2024/04/24 09:03:44;;;;;;;1.30;1.08;;;;;;;38.14;70.52;100309.75;5382793;26;65439;-32
2024/04/24 09:06:17;;;;;;;1.42;1.10;;;;;;;38.14;70.39;100309.75;5384584;26;67916;-30
2024/04/24 09:08:51;;;;;;;1.75;1.40;;;;;;;37.97;70.55;100284.63;5382022;26;65648;-32
2024/04/24 09:11:26;;;;;;;1.50;1.20;;;;;;;38.14;70.28;100308.91;5383375;26;69667;-31
2024/04/24 09:13:59;;;;;;;1.00;0.90;;;;;;;37.96;70.33;100274.78;5378966;26;65013;-29
2024/04/24 09:16:35;;;;;;;1.10;0.82;;;;;;;38.17;69.82;100314.66;5381983;26;69535;-31
2024/04/24 09:19:07;;;;;;;1.42;1.00;;;;;;;38.16;69.70;100317.66;5384384;26;64245;-31
2024/04/24 09:21:38;;;;;;;4.68;1.50;;;;;;;38.07;70.80;100303.75;5381489;26;68928;-31
2024/04/24 09:24:10;;;;;;;4.13;1.33;;;;;;;37.98;70.81;100308.19;5382043;26;64721;-30
2024/04/24 09:26:41;;;;;;;2.03;1.70;;;;;;;38.01;69.90;100315.84;5384376;26;68724;-30
2024/04/24 09:29:13;;;;;;;2.83;1.85;;;;;;;37.99;70.07;100313.38;5381341;26;64683;-31
2024/04/24 09:31:45;;;;;;;2.40;1.88;;;;;;;37.99;70.01;100318.03;5386014;26;68997;-31
2024/04/24 09:34:16;;;;;;;3.63;1.67;;;;;;;37.91;70.13;100305.72;5384557;26;65193;-31
2024/04/24 09:36:48;;;;;;;2.22;1.92;;;;;;;37.93;70.29;100313.66;5378306;26;68584;-30
2024/04/24 09:39:20;;;;;;;1.80;1.70;;;;;;;37.84;70.46;100302.50;5382760;26;64081;-31
2024/04/24 09:41:51;;;;;;;;;;;;;;;37.78;69.90;100307.16;5384693;26;68424;-32
2024/04/24 09:44:28;;;;;;;2.58;1.75;;;;;;;37.88;70.48;100310.94;5381746;26;66101;-31
2024/04/24 09:47:03;;;;;;;4.72;1.83;;;;;;;37.77;71.23;100311.00;5382974;26;69608;-31
2024/04/24 09:49:37;;;;;;;9.00;1.80;;;;;;;37.66;71.08;100292.97;5379304;26;64115;-30
2024/04/24 09:52:16;;;;;;;3.33;1.90;;;;;;;37.79;70.88;100313.47;5383876;26;68434;-30
2024/04/24 09:54:48;;;;;;;3.10;2.33;;;;;;;37.76;71.40;100309.38;5382977;26;65016;-30
2024/04/24 09:57:28;;;;;;;7.43;1.83;;;;;;;37.72;71.09;100316.50;5383816;26;68549;-30
2024/04/24 10:00:02;;;;;;;7.10;2.00;;;;;;;37.74;70.39;100311.56;5382734;26;65062;-29
2024/04/24 10:02:44;;;;;;;;;;;;;;;37.64;70.72;100306.16;5379277;26;68753;-30
2024/04/24 10:05:21;;;;;;;5.70;1.95;;;;;;;37.61;71.09;100312.16;5388522;26;65753;-30
2024/04/24 10:08:13;;;;;;;5.78;1.92;;;;;;;37.59;71.05;100300.69;5375119;26;67778;-30
2024/04/24 10:10:49;;;;;;;3.70;2.10;;;;;;;37.61;71.53;100312.16;5382363;26;64445;-29
2024/04/24 10:13:23;;;;;;;5.82;1.80;;;;;;;37.58;70.73;100307.25;5373909;26;69460;-30
2024/04/24 10:15:58;;;;;;;2.40;2.08;;;;;;;37.24;71.58;100264.13;5377229;26;64869;-30
2024/04/24 10:18:33;;;;;;;1.52;1.42;;;;;;;37.56;70.41;100309.47;5342190;26;68669;-32
2024/04/24 10:21:08;;;;;;;6.50;2.13;;;;;;;37.50;70.51;100321.50;5380733;26;65848;-30
2024/04/24 10:23:40;;;;;;;4.03;2.50;;;;;;;37.47;70.79;100317.41;5382014;26;67759;-31
2024/04/24 10:26:14;;;;;;;5.38;1.83;;;;;;;37.47;70.72;100320.13;5381914;26;65169;-29
2024/04/24 10:28:47;;;;;;;7.60;2.80;;;;;;;37.42;70.57;100313.84;5381657;26;68620;-30
2024/04/24 10:31:20;;;;;;;4.53;2.60;;;;;;;37.41;71.33;100323.97;5377746;26;64959;-30
2024/04/24 10:33:52;;;;;;;3.53;2.72;;;;;;;37.35;70.83;100325.91;5381297;26;68780;-30
2024/04/24 10:36:23;;;;;;;5.35;2.40;;;;;;;37.33;71.90;100327.28;5385140;26;65100;-29
2024/04/24 10:38:55;;;;;;;2.70;2.50;;;;;;;37.31;71.92;100319.34;5384789;26;68177;-33
2024/04/24 10:41:27;;;;;;;3.58;2.33;;;;;;;37.31;71.85;100329.47;5387522;26;65083;-30
2024/04/24 10:43:58;;;;;;;9.45;2.55;;;;;;;37.26;71.35;100329.50;5364690;26;68816;-30
2024/04/24 10:46:30;;;;;;;4.75;2.58;;;;;;;37.28;71.58;100336.31;5384217;26;65286;-31
2024/04/24 10:49:01;;;;;;;8.63;3.00;;;;;;;37.26;72.87;100335.78;5385671;26;67807;-29
2024/04/24 10:51:45;;;;;;;4.10;2.90;;;;;;;37.18;73.29;100325.41;5384943;26;64811;-30
2024/04/24 10:54:16;;;;;;;6.05;3.33;;;;;;;37.15;72.96;100323.22;5364114;26;68697;-29
2024/04/24 10:56:50;;;;;;;3.17;2.90;;;;;;;37.13;73.45;100330.88;5385804;26;65083;-31
2024/04/24 10:59:32;;;;;;;3.67;2.90;;;;;;;37.16;73.76;100334.97;5385443;26;68508;-30
2024/04/24 11:02:21;;;;;;;7.50;3.13;;;;;;;37.12;74.04;100338.25;5383434;26;65219;-31
2024/04/24 11:04:53;;;;;;;3.22;2.90;;;;;;;37.10;73.50;100339.63;5385721;26;68092;-30
2024/04/24 11:07:28;;;;;;;8.68;2.63;;;;;;;37.06;74.27;100338.56;5385850;26;64448;-30
2024/04/24 11:10:08;;;;;;;3.30;3.00;;;;;;;37.06;74.25;100338.56;5386245;26;68973;-30
2024/04/24 11:12:42;;;;;;;3.97;2.95;;;;;;;37.03;74.07;100347.31;5395502;26;65058;-33
2024/04/24 11:15:24;;;;;;;15.48;2.97;;;;;;;36.99;75.06;100337.97;5387213;26;69171;-29
2024/04/24 11:17:55;;;;;;;3.53;2.65;;;;;;;37.02;73.64;100342.94;5383113;26;65181;-30
2024/04/24 11:20:28;;;;;;;3.28;3.08;;;;;;;37.03;73.82;100344.59;5383644;26;67925;-31
2024/04/24 11:23:08;;;;;;;7.85;2.75;;;;;;;37.03;73.81;100350.06;5385163;26;65011;-33
2024/04/24 11:25:50;;;;;;;3.83;2.70;;;;;;;37.00;74.00;100361.47;5385369;26;68211;-32
2024/04/24 11:28:29;;;;;;;4.20;2.45;;;;;;;37.00;73.55;100373.25;5385861;26;65396;-32
2024/04/24 11:31:03;;;;;;;8.73;2.80;;;;;;;36.97;74.00;100373.81;5381232;26;68990;-30
2024/04/24 11:33:39;;;;;;;4.28;3.05;;;;;;;36.99;73.80;100381.72;5385356;26;65236;-31
2024/04/24 11:36:10;;;;;;;2.95;2.65;;;;;;;36.94;74.26;100373.53;5352982;26;69201;-33
2024/04/24 11:38:43;;;;;;;3.13;2.83;;;;;;;36.93;74.02;100378.16;5357915;26;64581;-34
2024/04/24 11:41:14;;;;;;;2.92;2.60;;;;;;;36.91;73.92;100392.09;5383138;26;68887;-30
2024/04/24 11:43:45;;;;;;;;;;;;;;;36.88;74.74;100391.84;5385215;26;64623;-31
2024/04/24 11:46:20;;;;;;;3.05;2.45;;;;;;;36.93;74.13;100400.03;5380849;26;68976;-31
2024/04/24 11:48:53;;;;;;;3.72;2.35;;;;;;;36.95;73.83;100411.53;5394567;26;65004;-31
2024/04/24 11:51:25;;;;;;;3.25;2.42;;;;;;;36.85;74.01;100409.59;5385366;26;68786;-33
2024/04/24 11:53:57;;;;;;;2.90;2.70;;;;;;;36.91;74.78;100419.44;5384051;26;65955;-31
2024/04/24 11:56:34;;;;;;;3.15;2.60;;;;;;;36.82;75.13;100421.06;5385423;26;69088;-32